Wetter

Nordholz:

METAR:

2019/07/19 21:20 ETMN 192120Z 11004KT 9999 FEW130 BKN150 BKN270 16/11 Q1014 BLU

TAF:

2019/07/19 11:56 TAF AMD ETMN 191000Z 1911/1920 31010KT 9999 NSW SCT020 SCT250 BECMG 1914/1916 03010KT 9999 NSW SCT020 BKN250 CANCEL 1500

Wind EDXN:

20.07. 02:10z 130/13G16kt
20.07. 02:20z 130/11G16kt
20.07. 02:30z 130/10G14kt
20.07. 02:40z 130/12kt
20.07. 02:50z 130/11G15kt
20.07. 03:00z 130/10G14kt
20.07. 03:10z 130/09G13kt
20.07. 03:20z 130/08G11kt
20.07. 03:30z 130/08G11kt
20.07. 03:40z 140/07kt

Bremen:

METAR:

2019/07/19 21:20 EDDW 192120Z 08006KT CAVOK 18/11 Q1014

TAF:

2019/07/19 18:27 TAF EDDW 191700Z 1918/2018 VRB03KT CAVOK BECMG 1919/1921 14005KT BECMG 2007/2009 20008KT TEMPO 2012/2015 22015G25KT 4500 TSRA BKN025CB PROB30 TEMPO 2012/2015 22025G45KT 2000 +TSRAGR BKN012CB

Hamburg:

METAR:

2019/07/19 21:20 EDDH 192120Z VRB01KT CAVOK 16/11 Q1014 NOSIG

TAF:

2019/07/19 18:27 TAF EDDH 191700Z 1918/2024 32007KT CAVOK BECMG 1918/1920 VRB02KT BECMG 2001/2003 15005KT BECMG 2011/2013 21008KT TEMPO 2014/2017 22015G25KT 4500 TSRA BKN025CB PROB30 TEMPO 2014/2017 22025G45KT 2000 +TSRAGR BKN012CB

Hannover:

METAR:

2019/07/19 21:20 EDDV 192120Z VRB01KT CAVOK 18/13 Q1014

TAF:

2019/07/19 18:27 TAF EDDV 191700Z 1918/2018 31005KT CAVOK BECMG 1918/1920 13004KT BECMG 2006/2008 20009KT PROB40 TEMPO 2014/2017 22015G25KT 4500 TSRA BKN025CB PROB30 TEMPO 2014/2017 22025G45KT 2000 +TSRAGR BKN012CB

Wikipedia Artikel: METARTAF

Daten von Aviation Weather Center der NOAA, es kann keine Garantie für Aktualität und Richtigkeit der Daten übernommen werden.

Die Nutzung dieser Daten zur Flugplanung ist nicht zulässig!

Inoffizielle ATIS 🙂